< < Back
Terminal Aerodrome Forecast


Current Version              Previous Versions:   1  2  3  4  5  6  7  8  9  

Terminal Aerodrome Forecast

558
FTUS42 KFFC 222300
TAFMCN
TAF
KMCN 222335Z 2300/2324 11005KT P6SM BKN035
     FM230700 00000KT 4SM BR BKN006
     FM231400 23003KT P6SM BKN020
     FM231700 25007KT P6SM VCSH SCT035 BKN050 PROB30 2319/2323 4SM
      -TSRA BR BKN035CB=



Latest METAR

513
SAUS80 KWBC 230200 RRA
MTRMCN
METAR KMCN 230153Z AUTO 12004KT 10SM SCT044 BKN055 OVC095 25/23 A3010
RMK AO2 SLP187 T02500233 TSNO


USA.gov is the U.S. government's official web portal to all federal, state and local government web resources and services.